Time;durP1;ratioP1;P1;durP2;ratioP2;P2;SDS_P1;SDS_P2;PMS_P1;PMS_P2;Temp;Humidity;BMP_temperature;BMP_pressure;BME280_temperature;BME280_humidity;BME280_pressure;Samples;Min_cycle;Max_cycle;Signal;HPM_P1;HPM_P2
2023/12/11 00:00:10;;;;;;;;;;;13.70;99.90;;;;;;7380913;19;20006;-75
2023/12/11 00:02:39;;;;;;;15.40;2.80;;;13.80;99.90;;;;;;7400084;19;19915;-76
2023/12/11 00:05:09;;;;;;;28.15;3.25;;;13.70;99.90;;;;;;7379629;19;20023;-75
2023/12/11 00:07:37;;;;;;;17.60;2.55;;;13.50;99.90;;;;;;7381663;19;20003;-75
2023/12/11 00:10:07;;;;;;;28.08;2.95;;;13.60;99.90;;;;;;7382494;19;20027;-75
2023/12/11 00:12:36;;;;;;;18.15;2.97;;;13.70;99.90;;;;;;7381697;19;20693;-75
2023/12/11 00:15:10;;;;;;;29.60;3.42;;;13.80;99.90;;;;;;7382100;19;20263;-74
2023/12/11 00:17:39;;;;;;;24.00;3.60;;;13.60;99.90;;;;;;7402108;19;20006;-76
2023/12/11 00:20:09;;;;;;;26.17;3.22;;;13.70;99.90;;;;;;7379200;19;20030;-76
2023/12/11 00:22:38;;;;;;;21.00;3.05;;;13.80;99.90;;;;;;7379361;19;20282;-75
2023/12/11 00:25:07;;;;;;;24.48;2.97;;;13.70;99.90;;;;;;7379674;19;20475;-76
2023/12/11 00:27:36;;;;;;;20.05;3.00;;;13.40;99.90;;;;;;7380009;19;20010;-75
2023/12/11 00:30:09;;;;;;;17.42;3.25;;;13.50;99.90;;;;;;7379033;19;20362;-75
2023/12/11 00:32:38;;;;;;;22.90;3.10;;;13.60;99.90;;;;;;7399099;19;20016;-76
2023/12/11 00:35:08;;;;;;;21.20;3.90;;;13.60;99.90;;;;;;7378571;19;20031;-76
2023/12/11 00:37:37;;;;;;;14.20;2.97;;;13.60;99.90;;;;;;7379355;19;20070;-76
2023/12/11 00:40:07;;;;;;;30.27;3.75;;;13.40;99.90;;;;;;7381156;19;20006;-75
2023/12/11 00:42:36;;;;;;;16.77;3.15;;;13.50;99.90;;;;;;7378700;19;20007;-75
2023/12/11 00:45:08;;;;;;;20.00;3.38;;;13.60;99.90;;;;;;7400499;19;20010;-76
2023/12/11 00:47:37;;;;;;;18.17;3.08;;;13.50;99.90;;;;;;7378858;19;20003;-76
2023/12/11 00:50:06;;;;;;;26.98;3.53;;;13.50;99.90;;;;;;7377639;19;20063;-76
2023/12/11 00:52:35;;;;;;;23.20;2.85;;;13.30;99.90;;;;;;7378573;19;20477;-76
2023/12/11 00:55:05;;;;;;;35.13;4.28;;;13.50;99.90;;;;;;7379023;19;20016;-76
2023/12/11 00:57:33;;;;;;;29.88;3.85;;;13.50;99.90;;;;;;7378648;19;20070;-76
2023/12/11 01:00:02;;;;;;;24.00;3.60;;;13.40;99.90;;;;;;7399924;19;20023;-76
2023/12/11 01:02:34;;;;;;;24.95;3.03;;;13.50;99.90;;;;;;7376539;19;20237;-76
2023/12/11 01:05:02;;;;;;;;;;;13.30;99.90;;;;;;7379520;19;20013;-76
2023/12/11 01:07:31;;;;;;;31.13;3.65;;;13.10;99.90;;;;;;7378971;19;19917;-76
2023/12/11 01:10:01;;;;;;;22.63;3.20;;;13.10;99.90;;;;;;7378173;19;20006;-76
2023/12/11 01:12:29;;;;;;;23.35;3.33;;;13.00;99.90;;;;;;7378102;19;20366;-76
2023/12/11 01:14:58;;;;;;;30.35;3.95;;;13.30;99.90;;;;;;7399362;19;20007;-76
2023/12/11 01:20:41;;;;;;;28.83;3.00;;;13.40;99.90;;;;;;7375765;19;20007;-76
2023/12/11 01:23:10;;;;;;;20.63;3.80;;;13.50;99.90;;;;;;7377078;19;20011;-76
2023/12/11 01:25:39;;;;;;;29.88;4.22;;;13.40;99.90;;;;;;7377552;19;20243;-76
2023/12/11 01:28:07;;;;;;;19.48;3.38;;;13.30;99.90;;;;;;7377428;19;20380;-76
2023/12/11 01:30:36;;;;;;;26.23;3.70;;;13.50;99.90;;;;;;7378133;19;20007;-75
2023/12/11 01:33:05;;;;;;;31.33;4.47;;;13.40;99.90;;;;;;7398829;19;20007;-76
2023/12/11 01:35:36;;;;;;;26.83;3.38;;;13.50;99.90;;;;;;7379174;19;20062;-76
2023/12/11 01:38:07;;;;;;;32.20;4.28;;;13.50;99.90;;;;;;7377356;19;20017;-76
2023/12/11 01:40:36;;;;;;;29.95;4.68;;;13.40;99.90;;;;;;7377544;19;20038;-76
2023/12/11 01:43:15;;;;;;;26.35;3.58;;;13.50;99.90;;;;;;7379990;19;20102;-75
2023/12/11 01:45:44;;;;;;;18.55;3.40;;;13.60;99.90;;;;;;7384985;19;20030;-75
2023/12/11 01:48:14;;;;;;;28.42;3.50;;;13.60;99.90;;;;;;7384571;19;20014;-76
2023/12/11 01:50:43;;;;;;;22.50;3.60;;;13.40;99.90;;;;;;7404007;19;20402;-76
2023/12/11 01:53:14;;;;;;;38.95;4.22;;;13.50;99.90;;;;;;7384038;19;20019;-76
2023/12/11 01:55:44;;;;;;;26.58;3.65;;;13.30;99.90;;;;;;7384470;19;20007;-75
2023/12/11 01:58:15;;;;;;;28.17;3.78;;;13.40;99.90;;;;;;7384521;19;20023;-75
2023/12/11 02:00:44;;;;;;;29.85;4.10;;;13.40;99.90;;;;;;7383534;19;20395;-76
2023/12/11 02:03:13;;;;;;;26.83;3.55;;;13.50;99.90;;;;;;7382677;19;20074;-75
2023/12/11 02:05:45;;;;;;;34.53;4.60;;;13.60;99.90;;;;;;7406517;19;20010;-75
2023/12/11 02:08:17;;;;;;;34.20;4.10;;;13.70;99.90;;;;;;7383882;19;20007;-75
2023/12/11 02:10:46;;;;;;;28.73;4.18;;;13.80;99.90;;;;;;7384198;19;20067;-75
2023/12/11 02:13:16;;;;;;;27.98;4.28;;;13.70;99.90;;;;;;7384360;19;20006;-76
2023/12/11 02:15:47;;;;;;;25.05;3.60;;;13.70;99.90;;;;;;7383636;19;20003;-76
2023/12/11 02:18:18;;;;;;;30.50;3.55;;;13.80;99.90;;;;;;7386046;19;20014;-76
2023/12/11 02:20:47;;;;;;;29.45;4.05;;;13.70;99.90;;;;;;7410408;19;20063;-76
2023/12/11 02:23:26;;;;;;;37.05;3.95;;;13.80;99.90;;;;;;7382473;19;20024;-76
2023/12/11 02:26:04;;;;;;;34.47;4.22;;;13.60;99.90;;;;;;7384216;19;20429;-76
2023/12/11 02:28:33;;;;;;;23.38;3.33;;;13.70;99.90;;;;;;7383525;19;19999;-76
2023/12/11 02:31:02;;;;;;;28.77;3.88;;;13.70;99.90;;;;;;7383875;19;20015;-76
2023/12/11 02:33:31;;;;;;;36.50;4.43;;;13.80;99.90;;;;;;7383324;19;20037;-75
2023/12/11 02:36:00;;;;;;;31.13;4.03;;;13.90;99.90;;;;;;7404535;19;20011;-76
2023/12/11 02:38:28;;;;;;;35.88;4.53;;;13.90;99.90;;;;;;7382518;19;20003;-76
2023/12/11 02:40:57;;;;;;;33.58;3.75;;;13.90;99.90;;;;;;7382784;19;20002;-75
2023/12/11 02:43:28;;;;;;;36.17;4.20;;;13.90;99.90;;;;;;7381933;19;19998;-75
2023/12/11 02:45:57;;;;;;;;;;;13.90;99.90;;;;;;7383857;19;20006;-74
2023/12/11 02:48:26;;;;;;;27.92;4.38;;;13.80;99.90;;;;;;7385006;19;19922;-75
2023/12/11 02:50:54;;;;;;;47.70;4.82;;;13.90;99.90;;;;;;7403024;19;20024;-74
2023/12/11 02:53:23;;;;;;;29.58;4.38;;;13.80;99.90;;;;;;7381654;19;20002;-75
2023/12/11 02:55:52;;;;;;;40.65;4.68;;;13.80;99.90;;;;;;7381526;19;20002;-75
2023/12/11 02:58:21;;;;;;;29.83;3.72;;;13.90;99.90;;;;;;7384646;19;20010;-75
2023/12/11 03:00:52;;;;;;;26.48;4.32;;;13.80;99.90;;;;;;7383110;19;19999;-75
2023/12/11 03:03:21;;;;;;;22.20;3.90;;;13.70;99.90;;;;;;7380681;19;20493;-75
2023/12/11 03:05:52;;;;;;;41.25;4.78;;;13.70;99.90;;;;;;7404046;19;20006;-75
2023/12/11 03:08:20;;;;;;;25.65;4.30;;;13.70;99.90;;;;;;7381423;19;20010;-75
2023/12/11 03:10:49;;;;;;;32.47;4.97;;;13.70;99.90;;;;;;7381277;19;20006;-75
2023/12/11 03:13:18;;;;;;;27.95;4.00;;;13.80;99.90;;;;;;7382096;19;19999;-75
2023/12/11 03:15:46;;;;;;;25.85;4.32;;;13.80;99.90;;;;;;7381863;19;20002;-76
2023/12/11 03:18:18;;;;;;;29.40;4.43;;;13.80;99.90;;;;;;7381928;19;20010;-76
2023/12/11 03:20:46;;;;;;;32.50;4.22;;;13.90;99.90;;;;;;7403226;19;20010;-76
2023/12/11 03:23:15;;;;;;;43.42;4.80;;;14.00;99.90;;;;;;7379481;19;20007;-75
2023/12/11 03:25:44;;;;;;;37.95;4.53;;;13.90;99.90;;;;;;7382592;19;20027;-75
2023/12/11 03:28:13;;;;;;;30.77;3.95;;;13.90;99.90;;;;;;7382908;19;20076;-75
2023/12/11 03:30:41;;;;;;;26.38;4.20;;;13.90;99.90;;;;;;7381256;19;20414;-76
2023/12/11 03:33:10;;;;;;;31.60;4.43;;;13.90;99.90;;;;;;7402922;19;20476;-75
2023/12/11 03:35:41;;;;;;;32.60;4.80;;;13.90;99.90;;;;;;7382121;19;19999;-76
2023/12/11 03:38:10;;;;;;;39.08;5.30;;;13.80;99.90;;;;;;7381176;19;20011;-76
2023/12/11 03:40:39;;;;;;;39.72;4.72;;;13.90;99.90;;;;;;7381011;19;20493;-76
2023/12/11 03:43:07;;;;;;;32.47;4.63;;;13.90;99.90;;;;;;7380585;19;20011;-76
2023/12/11 03:45:36;;;;;;;44.50;5.57;;;13.90;99.90;;;;;;7380732;19;20006;-76
2023/12/11 03:48:05;;;;;;;37.25;4.72;;;13.90;99.90;;;;;;7402571;19;20067;-76
2023/12/11 03:50:34;;;;;;;32.40;4.78;;;13.90;99.90;;;;;;7379524;19;20035;-76
2023/12/11 03:53:06;;;;;;;32.70;4.57;;;13.90;99.90;;;;;;7380696;19;20366;-76
2023/12/11 03:55:34;;;;;;;46.45;4.93;;;13.90;99.90;;;;;;7380812;19;20219;-76
2023/12/11 03:58:03;;;;;;;33.70;4.85;;;13.90;99.90;;;;;;7381162;19;20007;-75
2023/12/11 04:00:32;;;;;;;35.75;4.50;;;14.00;99.90;;;;;;7380659;19;20016;-75
2023/12/11 04:03:00;;;;;;;36.00;4.78;;;13.90;99.90;;;;;;7402270;19;20010;-75
2023/12/11 04:05:29;;;;;;;39.35;4.57;;;13.90;99.90;;;;;;7381340;19;20006;-75
2023/12/11 04:07:58;;;;;;;31.88;4.40;;;13.90;99.90;;;;;;7380202;19;20551;-75
2023/12/11 04:10:30;;;;;;;29.60;4.90;;;14.00;99.90;;;;;;7380248;19;20040;-75
2023/12/11 04:13:00;;;;;;;52.60;5.13;;;13.90;99.90;;;;;;7381198;19;20010;-74
2023/12/11 04:15:29;;;;;;;44.50;4.70;;;14.00;99.90;;;;;;7381351;19;20019;-75
2023/12/11 04:17:58;;;;;;;47.25;5.63;;;13.90;99.90;;;;;;7401159;19;20007;-76
2023/12/11 04:20:26;;;;;;;26.50;4.45;;;13.90;99.90;;;;;;7379612;19;20015;-76
2023/12/11 04:22:55;;;;;;;31.83;4.32;;;14.00;99.90;;;;;;7379276;19;20223;-76
2023/12/11 04:25:24;;;;;;;26.40;4.50;;;13.90;99.90;;;;;;7382500;19;20018;-75
2023/12/11 04:27:56;;;;;;;30.70;3.70;;;13.90;99.90;;;;;;7381154;19;20007;-75
2023/12/11 04:30:24;;;;;;;45.75;5.75;;;13.90;99.90;;;;;;7380339;19;20010;-76
2023/12/11 04:32:53;;;;;;;27.83;4.03;;;13.90;99.90;;;;;;7401684;19;20023;-76
2023/12/11 04:35:24;;;;;;;32.33;4.65;;;13.90;99.90;;;;;;7379997;19;20006;-76
2023/12/11 04:37:52;;;;;;;36.90;4.68;;;14.00;99.90;;;;;;7379580;19;20002;-76
2023/12/11 04:40:22;;;;;;;40.88;4.28;;;14.00;99.90;;;;;;7379763;19;20365;-76
2023/12/11 04:42:53;;;;;;;40.97;4.35;;;14.00;99.90;;;;;;7380911;19;20006;-76
2023/12/11 04:45:24;;;;;;;37.40;5.13;;;14.00;99.90;;;;;;7379564;19;20020;-76
2023/12/11 04:47:53;;;;;;;34.13;4.38;;;14.00;99.90;;;;;;7400173;19;20007;-75
2023/12/11 04:50:22;;;;;;;40.33;4.57;;;14.00;99.90;;;;;;7378657;19;20562;-76
2023/12/11 04:52:51;;;;;;;38.47;4.78;;;14.00;99.90;;;;;;7381275;19;20018;-75
2023/12/11 04:55:19;;;;;;;30.83;4.45;;;14.00;99.90;;;;;;7379037;19;20023;-76
2023/12/11 04:57:48;;;;;;;29.35;4.65;;;13.90;99.90;;;;;;7378876;19;20007;-76
2023/12/11 05:00:18;;;;;;;29.35;4.53;;;14.00;99.90;;;;;;7400601;19;20022;-76
2023/12/11 05:02:49;;;;;;;44.03;4.40;;;13.60;99.90;;;;;;7377687;19;20010;-76
2023/12/11 05:05:18;;;;;;;33.35;4.25;;;13.80;99.90;;;;;;7377856;19;20084;-76
2023/12/11 05:07:47;;;;;;;43.42;5.47;;;13.90;99.90;;;;;;7378448;19;20037;-76
2023/12/11 05:10:16;;;;;;;41.15;6.05;;;14.00;99.90;;;;;;7376957;19;20007;-76
2023/12/11 05:12:44;;;;;;;46.35;4.85;;;13.90;99.90;;;;;;7378564;19;20002;-75
2023/12/11 05:15:13;;;;;;;35.92;4.90;;;13.90;99.90;;;;;;7400373;19;20007;-75
2023/12/11 05:17:42;;;;;;;43.35;4.25;;;14.00;99.90;;;;;;7376790;19;20102;-76
2023/12/11 05:20:16;;;;;;;47.28;5.10;;;13.90;99.90;;;;;;7381906;19;19999;-75
2023/12/11 05:22:44;;;;;;;31.38;4.97;;;14.00;99.90;;;;;;7378520;19;20003;-74
2023/12/11 05:25:13;;;;;;;37.33;4.88;;;13.90;99.90;;;;;;7378585;19;20002;-75
2023/12/11 05:27:42;;;;;;;35.13;4.82;;;14.00;99.90;;;;;;7381200;19;20015;-75
2023/12/11 05:30:13;;;;;;;44.13;5.93;;;14.00;99.90;;;;;;7400835;19;20011;-75
2023/12/11 05:32:43;;;;;;;30.27;4.57;;;14.00;99.90;;;;;;7377492;19;20014;-76
2023/12/11 05:35:15;;;;;;;38.50;4.63;;;14.00;99.90;;;;;;7377161;19;20046;-75
2023/12/11 05:37:44;;;;;;;49.17;6.20;;;14.00;99.90;;;;;;7377414;19;20442;-75
2023/12/11 05:40:14;;;;;;;32.25;4.25;;;14.00;99.90;;;;;;7377979;19;20015;-75
2023/12/11 05:42:42;;;;;;;37.78;4.55;;;14.00;99.90;;;;;;7377929;19;19996;-75
2023/12/11 05:45:12;;;;;;;39.80;4.72;;;13.90;99.90;;;;;;7399002;19;20014;-76
2023/12/11 05:47:41;;;;;;;38.58;5.15;;;13.90;99.90;;;;;;7376834;19;20120;-75
2023/12/11 05:50:10;;;;;;;34.33;5.22;;;13.60;99.90;;;;;;7375911;19;20019;-76
2023/12/11 05:52:42;;;;;;;35.40;4.35;;;13.80;99.90;;;;;;7376795;19;20042;-76
2023/12/11 05:55:11;;;;;;;43.42;4.60;;;13.90;99.90;;;;;;7377764;19;20003;-75
2023/12/11 05:57:40;;;;;;;46.95;4.93;;;13.90;99.90;;;;;;7380111;19;20010;-75
2023/12/11 06:00:11;;;;;;;42.50;4.60;;;14.00;99.90;;;;;;7399261;19;20389;-75
2023/12/11 06:02:40;;;;;;;38.42;4.90;;;14.10;99.90;;;;;;7376855;19;20235;-76
2023/12/11 06:05:10;;;;;;;31.50;4.43;;;14.10;99.90;;;;;;7377349;19;20100;-74
2023/12/11 06:07:42;;;;;;;38.30;4.13;;;14.10;99.90;;;;;;7377023;19;20058;-75
2023/12/11 06:10:11;;;;;;;47.70;5.25;;;14.10;99.90;;;;;;7376129;19;20280;-75
2023/12/11 06:12:40;;;;;;;43.45;5.28;;;14.10;99.90;;;;;;7376868;19;20002;-74
2023/12/11 06:15:10;;;;;;;27.42;4.50;;;14.10;99.90;;;;;;7397996;19;20340;-75
2023/12/11 06:17:39;;;;;;;36.78;4.82;;;14.20;99.90;;;;;;7379911;19;20015;-76
2023/12/11 06:20:09;;;;;;;37.35;4.32;;;14.20;99.90;;;;;;7376122;19;20067;-75
2023/12/11 06:22:38;;;;;;;28.27;4.43;;;14.20;99.90;;;;;;7376451;19;20369;-76
2023/12/11 06:25:10;;;;;;;42.95;5.63;;;14.20;99.90;;;;;;7374899;19;20016;-75
2023/12/11 06:27:41;;;;;;;35.90;5.18;;;14.20;99.90;;;;;;7376187;19;20010;-75
2023/12/11 06:30:10;;;;;;;27.77;4.40;;;14.10;99.90;;;;;;7401394;19;20002;-75
2023/12/11 06:32:39;;;;;;;39.85;4.80;;;14.20;99.90;;;;;;7384849;19;20020;-75
2023/12/11 06:35:09;;;;;;;36.30;4.53;;;14.20;99.90;;;;;;7388207;19;20009;-76
2023/12/11 06:37:37;;;;;;;29.58;4.82;;;14.20;99.90;;;;;;7391420;19;20006;-76
2023/12/11 06:40:10;;;;;;;37.63;3.90;;;14.20;99.90;;;;;;7387910;19;20007;-75
2023/12/11 06:42:39;;;;;;;42.58;4.15;;;14.10;99.90;;;;;;7383362;19;20035;-75
2023/12/11 06:45:09;;;;;;;41.53;4.63;;;14.20;99.90;;;;;;7405159;19;20015;-75
2023/12/11 06:47:44;;;;;;;31.80;4.63;;;14.20;99.90;;;;;;7383553;19;20007;-77
2023/12/11 06:50:13;;;;;;;43.60;5.55;;;14.20;99.90;;;;;;7381947;19;20471;-75
2023/12/11 06:52:43;;;;;;;35.95;4.55;;;14.20;99.90;;;;;;7382924;19;20062;-75
2023/12/11 06:55:15;;;;;;;34.22;4.43;;;14.20;99.90;;;;;;7380430;19;20014;-75
2023/12/11 06:57:43;;;;;;;42.47;5.35;;;14.20;99.90;;;;;;7382153;19;20366;-75
2023/12/11 07:00:13;;;;;;;29.58;4.15;;;14.20;99.90;;;;;;7403683;19;20010;-75
2023/12/11 07:02:44;;;;;;;26.77;4.78;;;14.20;99.90;;;;;;7381324;19;20244;-75
2023/12/11 07:05:12;;;;;;;29.30;4.83;;;14.20;99.90;;;;;;7380970;19;20285;-75
2023/12/11 07:07:41;;;;;;;42.30;5.38;;;14.20;99.90;;;;;;7383627;19;20253;-76
2023/12/11 07:10:11;;;;;;;20.50;4.20;;;14.20;99.90;;;;;;7384214;19;20006;-75
2023/12/11 07:12:45;;;;;;;49.90;4.63;;;14.20;99.90;;;;;;7385694;19;20007;-76
2023/12/11 07:15:15;;;;;;;44.10;5.32;;;14.20;99.90;;;;;;7405086;19;20067;-76
2023/12/11 07:17:43;;;;;;;39.85;5.45;;;14.20;99.90;;;;;;7383183;19;20003;-76
2023/12/11 07:20:13;;;;;;;35.97;5.18;;;14.10;99.90;;;;;;7383585;19;20048;-76
2023/12/11 07:22:44;;;;;;;35.28;4.47;;;14.10;99.90;;;;;;7384123;19;20006;-76
2023/12/11 07:25:14;;;;;;;42.75;4.97;;;14.10;99.90;;;;;;7381760;19;20378;-76
2023/12/11 07:27:46;;;;;;;32.53;4.90;;;14.10;99.90;;;;;;7382201;19;20099;-76
2023/12/11 07:30:16;;;;;;;35.78;4.95;;;14.00;99.90;;;;;;7403600;19;20023;-75
2023/12/11 07:32:45;;;;;;;33.67;5.00;;;14.00;99.90;;;;;;7380935;19;20015;-75
2023/12/11 07:35:14;;;;;;;39.38;4.35;;;14.00;99.90;;;;;;7380565;19;20023;-75
2023/12/11 07:37:45;;;;;;;25.15;3.97;;;14.00;99.90;;;;;;7379162;19;20063;-76
2023/12/11 07:40:14;;;;;;;32.70;4.07;;;14.00;99.90;;;;;;7379953;19;20234;-76
2023/12/11 07:42:46;;;;;;;33.75;4.28;;;14.00;99.90;;;;;;7381288;19;20018;-75
2023/12/11 07:45:14;;;;;;;;;;;14.00;99.90;;;;;;7401207;19;20031;-75
2023/12/11 07:47:45;;;;;;;37.83;4.38;;;14.00;99.90;;;;;;7380230;19;19972;-75
2023/12/11 07:50:16;;;;;;;34.88;5.22;;;14.00;99.90;;;;;;7380933;19;20305;-75
2023/12/11 07:52:45;;;;;;;37.80;4.47;;;13.90;99.90;;;;;;7383184;19;19999;-75
2023/12/11 07:55:14;;;;;;;30.95;4.82;;;13.80;99.90;;;;;;7380897;19;20007;-76
2023/12/11 07:57:42;;;;;;;36.70;4.45;;;13.80;99.90;;;;;;7380540;19;20074;-75
2023/12/11 08:00:15;;;;;;;40.65;4.35;;;13.70;99.90;;;;;;7406303;19;20019;-77
2023/12/11 08:02:44;;;;;;;27.58;4.68;;;13.80;99.90;;;;;;7384132;19;20044;-78
2023/12/11 08:05:15;;;;;;;32.38;4.05;;;13.80;99.90;;;;;;7381815;19;20011;-77
2023/12/11 08:07:44;;;;;;;29.50;4.78;;;13.80;99.90;;;;;;7382732;19;20034;-77
2023/12/11 08:10:13;;;;;;;24.75;4.40;;;13.80;99.90;;;;;;7389033;19;20066;-78
2023/12/11 08:12:44;;;;;;;37.20;5.15;;;13.80;99.90;;;;;;7382739;19;20353;-76
2023/12/11 08:15:28;;;;;;;34.97;4.78;;;13.70;99.90;;;;;;7406944;19;20010;-79
2023/12/11 08:17:57;;;;;;;29.33;4.15;;;13.70;99.90;;;;;;7382182;19;20014;-76
2023/12/11 08:20:26;;;;;;;31.42;3.95;;;13.80;99.90;;;;;;7385660;19;20010;-78
2023/12/11 08:22:55;;;;;;;32.38;4.50;;;13.80;99.90;;;;;;7386862;19;19999;-74
2023/12/11 08:25:24;;;;;;;31.55;4.53;;;13.70;99.90;;;;;;7378748;19;20049;-74
2023/12/11 08:27:53;;;;;;;30.10;4.05;;;13.60;99.90;;;;;;7379659;19;20237;-77
2023/12/11 08:30:27;;;;;;;37.72;4.75;;;13.60;99.90;;;;;;7404490;19;20011;-81
2023/12/11 08:32:56;;;;;;;27.25;3.67;;;13.60;99.90;;;;;;7381810;19;20016;-81
2023/12/11 08:35:25;;;;;;;45.80;5.35;;;13.70;99.90;;;;;;7384692;19;20007;-81
2023/12/11 08:37:54;;;;;;;31.98;4.07;;;13.70;99.90;;;;;;7383494;19;20024;-81
2023/12/11 08:40:26;;;;;;;48.67;4.68;;;13.80;99.90;;;;;;7387989;19;20386;-81
2023/12/11 08:42:55;;;;;;;37.13;4.45;;;13.80;99.90;;;;;;7402014;19;20006;-81
2023/12/11 08:45:27;;;;;;;33.55;4.65;;;13.80;99.90;;;;;;7421970;19;20002;-79
2023/12/11 08:47:56;;;;;;;36.65;4.38;;;13.90;99.90;;;;;;7402668;19;20030;-79
2023/12/11 08:50:25;;;;;;;29.48;3.97;;;13.70;99.90;;;;;;7395372;19;20011;-78
2023/12/11 08:52:53;;;;;;;35.22;3.83;;;13.80;99.90;;;;;;7379479;19;20010;-80
2023/12/11 08:55:23;;;;;;;29.83;4.30;;;13.80;99.90;;;;;;7383422;19;20007;-81
2023/12/11 08:57:56;;;;;;;28.38;4.20;;;13.80;99.90;;;;;;7382142;19;20027;-78
2023/12/11 09:00:27;;;;;;;39.10;4.20;;;13.90;99.90;;;;;;7403313;19;20010;-78
2023/12/11 09:02:58;;;;;;;;;;;13.60;99.90;;;;;;7381019;19;20030;-79
2023/12/11 09:05:27;;;;;;;29.10;4.70;;;13.70;99.90;;;;;;7385243;19;19914;-79
2023/12/11 09:07:56;;;;;;;47.58;4.50;;;13.60;99.90;;;;;;7382550;19;20023;-78
2023/12/11 09:10:25;;;;;;;28.95;4.50;;;13.70;99.90;;;;;;7380722;19;20062;-78
2023/12/11 09:12:56;;;;;;;30.95;4.35;;;13.80;99.90;;;;;;7379712;19;20057;-77
2023/12/11 09:15:28;;;;;;;34.85;4.63;;;13.70;99.90;;;;;;7402516;19;20011;-77
2023/12/11 09:17:58;;;;;;;37.40;4.55;;;13.60;99.90;;;;;;7380065;19;20006;-80
2023/12/11 09:20:27;;;;;;;30.43;4.27;;;13.70;99.90;;;;;;7378432;19;20014;-78
2023/12/11 09:22:59;;;;;;;30.25;4.43;;;13.60;99.90;;;;;;7379778;19;20264;-76
2023/12/11 09:25:31;;;;;;;29.88;3.83;;;13.50;99.90;;;;;;7381960;19;20011;-78
2023/12/11 09:28:04;;;;;;;30.50;4.90;;;13.50;99.90;;;;;;7384996;19;20011;-78
2023/12/11 09:30:36;;;;;;;29.77;4.20;;;13.40;99.90;;;;;;7383935;19;20010;-77
2023/12/11 09:33:05;;;;;;;31.15;4.00;;;13.60;99.90;;;;;;7400656;19;20006;-77
2023/12/11 09:35:37;;;;;;;46.13;4.88;;;13.70;99.90;;;;;;7378695;19;20269;-79
2023/12/11 09:38:05;;;;;;;;;;;13.70;99.90;;;;;;7384225;19;20425;-78
2023/12/11 09:40:35;;;;;;;30.05;4.93;;;13.70;99.90;;;;;;7385319;19;20229;-79
2023/12/11 09:43:05;;;;;;;36.55;4.30;;;13.50;99.90;;;;;;7383472;19;20017;-78
2023/12/11 09:45:36;;;;;;;37.28;5.25;;;13.60;99.90;;;;;;7378425;19;20017;-78
2023/12/11 09:48:05;;;;;;;;;;;13.70;99.90;;;;;;7400068;19;20245;-77
2023/12/11 09:50:34;;;;;;;36.55;4.60;;;13.50;99.90;;;;;;7376196;19;20259;-77
2023/12/11 09:53:06;;;;;;;36.05;4.82;;;13.60;99.90;;;;;;7378727;19;20011;-77
2023/12/11 09:55:34;;;;;;;47.38;5.60;;;13.80;99.90;;;;;;7383411;19;20014;-77
2023/12/11 09:58:05;;;;;;;46.60;5.20;;;13.50;99.90;;;;;;7380013;19;20284;-78
2023/12/11 10:00:37;;;;;;;24.00;4.28;;;13.50;99.90;;;;;;7399404;19;20024;-79
2023/12/11 10:03:11;;;;;;;31.77;4.32;;;13.50;99.90;;;;;;7380249;19;20010;-77
2023/12/11 10:05:39;;;;;;;35.63;4.38;;;13.70;99.90;;;;;;7382928;19;20409;-77
2023/12/11 10:08:11;;;;;;;26.45;4.13;;;13.70;99.90;;;;;;7386012;19;20070;-77
2023/12/11 10:10:40;;;;;;;;;;;13.80;99.90;;;;;;7388151;19;20019;-77
2023/12/11 10:13:09;;;;;;;38.28;4.63;;;13.90;99.90;;;;;;7382495;19;20334;-77
2023/12/11 10:15:40;;;;;;;29.27;4.10;;;13.80;99.90;;;;;;7399944;19;20007;-78
2023/12/11 10:18:11;;;;;;;31.45;4.50;;;13.70;99.90;;;;;;7406632;19;20020;-77
2023/12/11 10:20:41;;;;;;;38.88;4.50;;;13.90;99.90;;;;;;7384660;19;20007;-77
2023/12/11 10:23:16;;;;;;;31.05;4.93;;;13.90;99.90;;;;;;7384135;19;20002;-76
2023/12/11 10:25:46;;;;;;;29.02;4.55;;;13.90;99.90;;;;;;7384488;19;20369;-76
2023/12/11 10:28:16;;;;;;;53.45;5.88;;;14.00;99.90;;;;;;7383684;19;20020;-76
2023/12/11 10:30:55;;;;;;;30.08;4.45;;;14.00;99.90;;;;;;7385180;19;20263;-77
2023/12/11 10:33:29;;;;;;;39.83;4.72;;;13.90;99.90;;;;;;7405846;19;20007;-78
2023/12/11 10:36:12;;;;;;;32.03;4.93;;;13.90;99.90;;;;;;7384204;19;20361;-78
2023/12/11 10:38:41;;;;;;;28.00;5.05;;;14.00;99.90;;;;;;7383301;19;20042;-77
2023/12/11 10:41:10;;;;;;;42.15;5.28;;;13.70;99.90;;;;;;7385835;19;20015;-77
2023/12/11 10:43:44;;;;;;;35.83;5.07;;;13.90;99.90;;;;;;7383156;19;20006;-77
2023/12/11 10:46:15;;;;;;;25.85;5.30;;;14.00;99.90;;;;;;7384019;19;20028;-77
2023/12/11 10:48:44;;;;;;;41.28;4.50;;;14.10;99.90;;;;;;7383352;19;20016;-78
2023/12/11 10:51:13;;;;;;;39.45;5.22;;;13.90;99.90;;;;;;7402849;19;20006;-77
2023/12/11 10:53:42;;;;;;;33.92;4.05;;;14.00;99.90;;;;;;7386223;19;20027;-77
2023/12/11 10:56:11;;;;;;;40.10;5.25;;;14.10;99.90;;;;;;7388725;19;20429;-78
2023/12/11 10:58:40;;;;;;;35.53;4.60;;;14.20;99.90;;;;;;7392089;19;20009;-78
2023/12/11 11:01:12;;;;;;;28.83;4.13;;;14.20;99.90;;;;;;7394055;19;20526;-77
2023/12/11 11:03:43;;;;;;;45.15;5.90;;;14.30;99.90;;;;;;7407646;19;20267;-76
2023/12/11 11:06:14;;;;;;;31.60;4.82;;;14.40;99.90;;;;;;7380843;19;20003;-77
2023/12/11 11:08:51;;;;;;;;;;;14.10;99.90;;;;;;7385052;19;20007;-78
2023/12/11 11:11:25;;;;;;;37.40;4.50;;;14.10;99.90;;;;;;7384846;19;19914;-77
2023/12/11 11:14:16;;;;;;;35.08;4.63;;;14.20;99.90;;;;;;7382324;19;20010;-77
2023/12/11 11:16:53;;;;;;;;;;;14.30;99.90;;;;;;7381796;19;20006;-78
2023/12/11 11:19:27;;;;;;;29.25;4.57;;;14.40;99.90;;;;;;7385241;19;19923;-79
2023/12/11 11:22:22;;;;;;;39.15;4.18;;;14.30;99.90;;;;;;7386576;19;20007;-76
2023/12/11 11:24:51;;;;;;;32.58;4.90;;;14.40;99.90;;;;;;7382798;19;20011;-79
2023/12/11 11:27:42;;;;;;;38.08;4.75;;;14.50;99.90;;;;;;7408924;19;20007;-78
2023/12/11 11:30:12;;;;;;;36.83;4.30;;;14.50;99.90;;;;;;7382402;19;20264;-78
2023/12/11 11:32:56;;;;;;;36.05;4.65;;;14.50;99.90;;;;;;7380421;19;20259;-76
2023/12/11 11:35:52;;;;;;;33.67;4.68;;;14.60;99.90;;;;;;7382574;19;20006;-77
2023/12/11 11:38:22;;;;;;;34.90;4.50;;;14.60;99.90;;;;;;7380455;19;20435;-77
2023/12/11 11:40:52;;;;;;;31.55;4.70;;;14.50;99.90;;;;;;7384575;19;20023;-76
2023/12/11 11:43:30;;;;;;;31.63;4.83;;;14.40;99.90;;;;;;7387798;19;20010;-79
2023/12/11 11:46:01;;;;;;;25.00;3.60;;;14.50;99.90;;;;;;7383449;19;20007;-78
2023/12/11 11:48:44;;;;;;;30.15;4.25;;;14.40;99.90;;;;;;7408819;19;20020;-78
2023/12/11 11:51:17;;;;;;;32.17;4.70;;;14.50;99.90;;;;;;7386313;19;20003;-79
2023/12/11 11:53:47;;;;;;;41.45;4.82;;;14.50;99.90;;;;;;7388358;19;20002;-77
2023/12/11 11:56:19;;;;;;;33.78;4.18;;;14.30;99.90;;;;;;7383608;19;20006;-79
2023/12/11 11:58:49;;;;;;;30.25;4.00;;;14.50;99.90;;;;;;7380398;19;20006;-78
2023/12/11 12:01:18;;;;;;;22.95;3.67;;;14.60;99.90;;;;;;7382108;19;20051;-78
2023/12/11 12:03:47;;;;;;;25.60;3.88;;;14.50;99.90;;;;;;7384322;19;20027;-77
2023/12/11 12:06:20;;;;;;;34.00;4.88;;;14.60;99.90;;;;;;7402055;19;20074;-77
2023/12/11 12:08:51;;;;;;;35.28;4.47;;;14.70;99.90;;;;;;7382135;19;20262;-82
2023/12/11 12:11:23;;;;;;;47.07;5.20;;;14.80;99.90;;;;;;7383761;19;20256;-77
2023/12/11 12:14:03;;;;;;;36.25;4.40;;;14.90;99.90;;;;;;7386908;19;20062;-77
2023/12/11 12:16:32;;;;;;;38.33;4.43;;;14.80;99.90;;;;;;7383507;19;20382;-77
2023/12/11 12:19:00;;;;;;;28.10;4.13;;;14.80;99.90;;;;;;7379964;19;20391;-78
2023/12/11 12:21:49;;;;;;;29.98;4.57;;;14.80;99.90;;;;;;7403155;19;20018;-76
2023/12/11 12:24:22;;;;;;;38.40;4.88;;;14.80;99.90;;;;;;7379558;19;20109;-77
2023/12/11 12:26:58;;;;;;;42.55;4.82;;;14.90;99.90;;;;;;7378279;19;20014;-76
2023/12/11 12:29:28;;;;;;;29.58;5.13;;;14.90;99.90;;;;;;7382817;19;20228;-76
2023/12/11 12:31:59;;;;;;;37.30;4.72;;;14.80;99.90;;;;;;7378825;19;20066;-75
2023/12/11 12:34:29;;;;;;;34.55;4.50;;;14.80;99.90;;;;;;7380086;19;20003;-75
2023/12/11 12:37:03;;;;;;;35.70;4.55;;;14.80;99.90;;;;;;7377197;19;20015;-78
2023/12/11 12:39:33;;;;;;;31.75;4.18;;;14.60;99.90;;;;;;7400828;19;20031;-76
2023/12/11 12:42:02;;;;;;;37.13;5.00;;;14.70;99.90;;;;;;7378374;19;20002;-78
2023/12/11 12:44:40;;;;;;;25.83;3.75;;;14.70;99.90;;;;;;7378933;19;20003;-79
2023/12/11 12:50:22;;;;;;;28.90;4.80;;;14.80;99.90;;;;;;7382356;19;20031;-79
2023/12/11 12:52:53;;;;;;;34.53;4.63;;;14.60;99.90;;;;;;7383994;19;20436;-79
2023/12/11 12:55:31;;;;;;;31.55;4.18;;;14.70;99.90;;;;;;7381438;19;20040;-78
2023/12/11 12:58:00;;;;;;;31.73;4.75;;;14.80;99.90;;;;;;7385021;19;20013;-78
2023/12/11 13:00:34;;;;;;;29.23;3.75;;;14.90;99.90;;;;;;7402693;19;20014;-76
2023/12/11 13:03:09;;;;;;;31.50;4.03;;;14.90;99.90;;;;;;7378331;19;20007;-77